INDIA METEOROLOGICAL DEPARTMENT, R.M.C. NEW DELHI
Dated:7 - 3 - 2015
METARS


Ahmedabad  
VAAH 062310Z 00000KT 4000 HZ NSC 18/14 Q1013 NOSIG=
Amritsar   
VIAR 070000Z 00000KT 2000 BR SCT040 10/10 Q1014=
Bangalore  
SPECI VOBL 070000Z VRB02KT 5000 BR FEW015 23/23 Q1017 TEMPO 3000=
Chennai    
VOMM 062340Z 00000KT 4000 BR SCT018 25/24 Q1012 TEMPO 3000 BR=
Coimbatore 
VOCB 062330Z 33004KT 3000 -TSRA SCT015 FEW020CB OVC080 23/22 Q1015 NOSIG=
Colombo    
VCBI 062310Z 05005KT 020V120 9000 SKC 24/22 Q1012 NOSIG=
Delhi      
VIDP 062330Z 00000KT 1500 R/28/29/P2000 BR NSC 16/13 Q1015 NOSIG =
Gauhati    
VEGT 062330Z 00000KT 2500 BR FEW100 16/13 Q1014 NOSIG=
Gaya       
VEGY 070000Z 20004KT 2500 HZ NSC 13/08 Q1014 =
Goa        
VOGO 070000Z VRB03KT 2500 BR FEW020 22/21 Q1011 NOSIG =
Hyderabad  
VOHS 062340Z 08003KT 4000 HZ SCT015 SCT100 23/20 Q1016 NOSIG=
Jaipur     
SPECI VIJP 062330Z 09006G16KT 2000 HZ SCT035 17/13 Q1015 BECMG 1500=
Kochi      
VOCI 070000Z 09004KT 4000 HZ FEW015 SCT080 26/22 Q1012 NOSIG=
Kolkata    
VECC 062350Z 00000KT 1600 BR NSC 18/17 Q1013 BECMG 1500 BR=
Kozhikode  
VOCL 070000Z 11009KT 6000 FEW012 24/22 Q1012 NOSIG =
Lucknow    
VILK 062230Z 00000KT 3500 HZ NSC 15/11 Q1013=
Madurai    
VOMD 070000Z 00000KT 5000 BR FEW020 SCT100 26/23 Q1014 =
Mumbai     
VABB 062310Z 00000KT 3000 FU NSC 25/12 Q1012 NOSIG=
Nagpur     
VANP 062240Z 00000KT 5000 HZ NSC 18/10 Q1015 NOSIG=
Patna      
VEPT 062350Z NIL=
Trichy     
VOTR 062340Z 00000KT 6000 SCT018 SCT100 26/24 Q1013 NOSIG=
Trivandrum 
VOTV 062310Z 00000KT 3000 HZ FEW015 SCT090 26/23 Q1011 NOSIG=
Udaipur    
VAUD 070000Z 32005KT 5000 HZ FEW025 16/12 1015=
Varanasi   
VIBN 062330Z 21003KT 4000 HZ NSC 17/15 Q1014=
Vizag      
VOVZ 070000Z VRB02KT 4500 BR FEW018 SCT090 24/22 Q1013 NOSIG =
Male       
VRMM 062310Z NIL=
Kathmandu   
VNKT 062350Z NIL=
Dhaka      
VGHS 062350Z NIL=
Colombo     
VCBI 062310Z 05005KT 020V120 9000 SKC 24/22 Q1012 NOSIG=
Karachi     
OPKC 062255Z 04005KT 6000 SCT020 SCT100 21/16 Q1014 NOSIG=
Lahore      
OPLA 062255Z 31003KT 4000 FU FEW040 SCT100 13/10 Q1015/A29.99 NOSIG=